• Join FlightAware (Why Join?)
  • Login
  • US Flag 
11:08AM EDT


 

Airport Tracker/Info


-or-


 

Live Flight TrackerFlight Track Log ✈ UAL4550 ✈ 12-Sep-2013 ✈ KMCI - KIAH

Flight Track Log - Related Links

Times and Time Zones

All times are in EDT time to prevent confusion due to time zone crossing. See the UAL4550 flight status page for this flight to view local times or setup timezone preferences in your user account.

Time Position Orientation Groundspeed Altitude Reporting Facility
EDT Latitude Longitude Course Direction KTS MPH feet Rate Location/Type
05:10PM 39.3167 -94.7167 336° Northwest 172 198 1,500  Level Kansas City TRACON
05:12PM 39.3831 -94.7556 336° Northwest 220 253 4,200 2,100 Climbing Kansas City Center
05:13PM 39.3247 -94.8172 219° Southwest 265 305 6,800 2,400 Climbing Kansas City Center
05:14PM 39.2481 -94.8314 188° South 289 333 9,200 1,980 Climbing Kansas City Center
05:15PM 39.1686 -94.8469 189° South 297 342 11,000 1,440 Climbing Kansas City Center
05:16PM 39.0611 -94.8681 189° South 346 398 12,200 1,020 Climbing Kansas City Center
05:17PM 38.9592 -94.8883 189° South 380 437 13,200 960 Climbing Kansas City Center
05:18PM 38.8353 -94.9122 189° South 397 457 14,300 960 Climbing Kansas City Center
05:19PM 38.7272 -94.9356 190° South 409 471 15,200 960 Climbing Kansas City Center
05:20PM 38.6017 -94.9783 195° South 415 478 16,300 1,020 Climbing Kansas City Center
05:21PM 38.4947 -95.0164 196° South 416 479 17,400 1,080 Climbing Kansas City Center
05:22PM 38.3717 -95.0597 195° South 410 472 18,600 1,140 Climbing Kansas City Center
05:23PM 38.2686 -95.0950 195° South 403 464 19,800 1,140 Climbing Kansas City Center
05:24PM 38.1647 -95.1294 195° South 401 461 21,000 1,200 Climbing Kansas City Center
05:25PM 38.0436 -95.1722 196° South 403 464 22,400 1,260 Climbing Kansas City Center
05:26PM 37.9386 -95.2081 195° South 393 452 23,700 1,200 Climbing Kansas City Center
05:27PM 37.8319 -95.2444 195° South 395 455 24,900 1,200 Climbing Kansas City Center
05:28PM 37.7256 -95.2808 195° South 395 455 26,200 1,260 Climbing Kansas City Center
05:29PM 37.5981 -95.3233 195° South 393 452 27,600 1,200 Climbing Kansas City Center
05:30PM 37.4931 -95.3597 195° South 392 451 28,800 1,140 Climbing Kansas City Center
05:31PM 37.3875 -95.3950 195° South 392 451 30,000 1,080 Climbing Kansas City Center
05:32PM 37.2822 -95.4306 195° South 391 450 31,100 960 Climbing Kansas City Center
05:33PM 37.1761 -95.4636 194° South 392 451 32,000 900 Climbing Kansas City Center
05:34PM 37.0694 -95.5008 196° South 395 455 33,000 960 Climbing Kansas City Center
05:35PM 36.9419 -95.5428 195° South 395 455 34,100 960 Climbing Kansas City Center
05:36PM 36.8347 -95.5794 195° South 398 458 35,100 900 Climbing Kansas City Center
05:37PM 36.7281 -95.6147 195° South 398 458 36,000 420 Climbing Kansas City Center
05:39PM 36.6192 -95.6503 195° South 403 464 36,000  Level Kansas City Center
05:40PM 36.5078 -95.6894 196° South 413 475 36,000  Level Kansas City Center
05:41PM 36.3831 -95.7272 194° South 449 517 36,000  Level Kansas City Center
05:42PM 36.2261 -95.7397 184° South 481 554 36,000  Level Kansas City Center
05:43PM 36.0919 -95.7347 178° South 481 554 36,000  Level Kansas City Center
05:44PM 35.9619 -95.7311 179° South 486 559 36,000  Level Kansas City Center
05:45PM 35.8281 -95.7264 178° South 484 557 36,000  Level Kansas City Center
05:46PM 35.6678 -95.7222 179° South 480 552 36,000  Level Kansas City Center
05:47PM 35.5344 -95.7197 179° South 479 551 36,000  Level Kansas City Center
05:48PM 35.4022 -95.7189 180° South 477 549 36,000  Level Kansas City Center
05:49PM 35.2539 -95.7839 200° South 466 536 36,000  Level Fort Worth Center
05:50PM 35.1317 -95.8422 201° Southwest 466 536 36,000  Level Fort Worth Center
05:51PM 34.9967 -95.9056 201° Southwest 471 542 36,000  Level Fort Worth Center
05:52PM 34.8678 -95.9381 192° South 476 548 36,000  Level Fort Worth Center
05:53PM 34.7389 -95.9681 191° South 476 548 36,000  Level Fort Worth Center
05:54PM 34.6119 -95.9981 191° South 471 542 36,000  Level Fort Worth Center
05:55PM 34.4808 -96.0253 190° South 471 542 36,000  Level Fort Worth Center
05:56PM 34.3497 -96.0578 192° South 476 548 36,000  Level Fort Worth Center
05:57PM 34.2228 -96.0972 194° South 476 548 36,000  Level Fort Worth Center
05:58PM 34.0961 -96.1494 199° South 476 548 36,000  Level Fort Worth Center
05:59PM 33.9986 -96.2136 209° Southwest 460 529 36,000  Level Fort Worth Center
06:00PM 33.8803 -96.2875 207° Southwest 465 535 36,000  Level Fort Worth Center
06:01PM 33.7661 -96.3617 208° Southwest 472 543 36,000  Level Fort Worth Center
06:02PM 33.6478 -96.4328 207° Southwest 472 543 36,000  Level Fort Worth Center
06:03PM 33.5294 -96.5089 208° Southwest 472 543 36,000  Level Fort Worth Center
06:04PM 33.4131 -96.5822 208° Southwest 472 543 36,000  Level Fort Worth Center
06:05PM 33.2944 -96.6556 207° Southwest 472 543 36,000  Level Fort Worth Center
06:06PM 33.1633 -96.7211 203° Southwest 472 543 36,000  Level Fort Worth Center
06:07PM 33.0256 -96.7097 176° South 464 534 36,000  Level Fort Worth Center
06:08PM 32.8939 -96.6911 173° South 470 541 36,000  Level Fort Worth Center
06:09PM 32.7603 -96.6747 174° South 482 555 36,000  Level Fort Worth Center
06:10PM 32.6286 -96.6561 173° South 482 555 36,000  Level Fort Worth Center
06:11PM 32.4950 -96.6400 174° South 482 555 36,000  Level Fort Worth Center
06:12PM 32.3339 -96.6192 174° South 482 555 36,000  Level Fort Worth Center
06:13PM 32.2025 -96.6031 174° South 482 555 36,000  Level Fort Worth Center
06:14PM 32.0708 -96.5872 174° South 482 555 36,000 -420 Level Fort Worth Center
06:15PM 31.9411 -96.5711 174° South 482 555 35,200 -1,260 Descending Fort Worth Center
06:16PM 31.8053 -96.5528 173° South 482 555 33,500 -1,920 Descending Fort Worth Center
06:17PM 31.7247 -96.5408 173° South 477 549 32,100 -2,280 Descending Houston Center
06:18PM 31.5936 -96.5244 174° South 472 543 29,700 -1,500 Descending Houston Center
06:19PM 31.4639 -96.4928 168° South 477 549 29,000 -900 Descending Houston Center
06:20PM 31.3492 -96.4317 156° South 457 526 27,900 -1,260 Descending Houston Center
06:21PM 31.2292 -96.3542 151° Southeast 478 550 26,400 -1,500 Descending Houston Center
06:22PM 31.1147 -96.2814 151° Southeast 470 541 24,900 -1,500 Descending Houston Center
06:23PM 31.0017 -96.2097 151° Southeast 460 529 23,400 -1,800 Descending Houston Center
06:24PM 30.8939 -96.1419 152° Southeast 443 510 21,300 -2,460 Descending Houston Center
06:25PM 30.7892 -96.0756 151° Southeast 431 496 18,400 -3,000 Descending Houston Center
06:26PM 30.6769 -96.0050 152° Southeast 411 473 15,200 -3,000 Descending Houston Center
06:27PM 30.5664 -95.9347 151° Southeast 371 427 12,000 -2,820 Descending Houston Center
06:28PM 30.5219 -95.9058 151° Southeast 362 417 10,600 -2,040 Descending Houston Center
06:28PM 30.5006 -95.8897 147° Southeast 364 419 10,100 -600 Descending Houston Center
06:29PM 30.4417 -95.8497 150° Southeast 296 341 10,000 -300 Descending Houston Center
06:29PM 30.4247 -95.8431 161° South 321 369 9,800 -900 Descending Houston Center
06:30PM 30.3608 -95.8397 177° South 293 337 9,100 -1,200 Descending Houston Center
06:30PM 30.3250 -95.8367 176° South 298 343 8,600 -1,140 Descending Houston Center
06:31PM 30.2764 -95.8328 176° South 279 321 8,000 -600 Descending Houston Center
06:31PM 30.2481 -95.8297 175° South 286 329 8,000  Level Houston Center
06:32PM 30.2069 -95.8069 154° Southeast 258 297 8,000 -300 Level Houston Center
06:32PM 30.1836 -95.7942 155° Southeast 271 312 7,700 -840 Descending Houston Center
06:33PM 30.1386 -95.7689 154° Southeast 273 314 7,200 -780 Descending Houston Center
06:33PM 30.1156 -95.7539 151° Southeast 273 314 6,900 -1,020 Descending Houston Center
06:34PM 30.0719 -95.7286 153° Southeast 267 307 6,200 -900 Descending Houston Center
06:34PM 30.0497 -95.7161 154° Southeast 267 307 6,000 -600 Descending Houston Center
06:35PM 30.0144 -95.6942 152° Southeast 225 259 5,600 -720 Descending Houston Center
06:36PM 30.0014 -95.6739 127° Southeast 232 267 5,300 -1,020 Descending Houston Center
06:36PM 29.9897 -95.6297 107° East 223 257 4,600 -1,260 Descending Houston Center
06:37PM 29.9944 -95.5950 81° East 217 250 4,000 -1,140 Descending Houston Center
06:37PM 29.9919 -95.5619 95° East 196 226 3,500 -1,020 Descending Houston Center
06:38PM 29.9939 -95.5344 85° East 201 231 3,000 -900 Descending Houston Center
06:38PM 29.9933 -95.5061 91° East 172 198 2,600 -900 Descending Houston Center
06:39PM 29.9942 -95.4789 88° East 187 215 2,100 -1,020 Descending Houston Center
06:39PM 29.9925 -95.4508 94° East 175 201 1,600 -900 Descending Houston Center
06:40PM 29.9944 -95.4253 85° East 177 204 1,200 -720 Descending Houston Center
06:40PM 29.9922 -95.4003 96° East 135 155 900 -600 Descending Houston Center
06:41PM 29.9936 -95.3808 85° East 159 183 600 -660 Descending Houston Center
06:41PM 29.9928 -95.3614 93° East 136 157 300 -240 Descending Houston Center
06:42PM 29.9931 -95.3361 89° East 156 180 400 120 Climbing Houston Center
06:44PM 29.9833 -95.3333 131° Southeast  Level FlightAware Approximate